createdAt,value
2018-11-21T00:00:28.000Z,16.09
2018-11-21T00:01:27.974Z,16.09
2018-11-21T00:02:27.943Z,16.12
2018-11-21T00:03:27.931Z,16.09
2018-11-21T00:04:27.897Z,16.07
2018-11-21T00:05:27.877Z,16.20
2018-11-21T00:06:27.848Z,16.06
2018-11-21T00:07:27.829Z,16.06
2018-11-21T00:08:27.801Z,16.12
2018-11-21T00:09:27.780Z,16.04
2018-11-21T00:10:27.768Z,16.11
2018-11-21T00:11:27.729Z,16.16
2018-11-21T00:12:27.720Z,16.03
2018-11-21T00:13:27.694Z,16.15
2018-11-21T00:14:27.673Z,16.11
2018-11-21T00:15:27.651Z,16.14
2018-11-21T00:16:27.619Z,16.09
2018-11-21T00:17:27.601Z,16.06
2018-11-21T00:18:27.576Z,16.11
2018-11-21T00:19:27.559Z,16.12
2018-11-21T00:20:27.534Z,16.20
2018-11-21T00:21:27.505Z,16.15
2018-11-21T00:22:27.487Z,16.16
2018-11-21T00:23:27.448Z,16.18
2018-11-21T00:24:27.437Z,16.18
2018-11-21T00:25:27.409Z,16.12
2018-11-21T00:26:27.373Z,16.15
2018-11-21T00:27:27.364Z,16.04
2018-11-21T00:28:27.339Z,16.18
2018-11-21T00:29:27.305Z,16.26
2018-11-21T00:30:27.300Z,16.18
2018-11-21T00:31:27.261Z,16.14
2018-11-21T00:32:27.251Z,16.22
2018-11-21T00:33:27.209Z,16.16
2018-11-21T00:34:27.211Z,16.23
2018-11-21T00:35:27.181Z,16.20
2018-11-21T00:36:27.144Z,16.22
2018-11-21T00:37:27.129Z,16.23
2018-11-21T00:38:27.116Z,16.23
2018-11-21T00:39:27.088Z,16.23
2018-11-21T00:40:27.063Z,16.20
2018-11-21T00:41:27.029Z,16.22
2018-11-21T00:42:27.017Z,16.18
2018-11-21T00:43:26.997Z,16.27
2018-11-21T00:44:26.981Z,16.25
2018-11-21T00:45:26.948Z,16.23
2018-11-21T00:46:26.929Z,16.22
2018-11-21T00:47:26.913Z,16.16
2018-11-21T00:48:26.882Z,16.16
2018-11-21T00:49:26.859Z,16.22
2018-11-21T00:50:26.841Z,16.23
2018-11-21T00:51:26.815Z,16.15
2018-11-21T00:52:26.790Z,16.27
2018-11-21T00:53:26.766Z,16.23
2018-11-21T00:54:26.741Z,16.23
2018-11-21T00:55:26.699Z,16.22
2018-11-21T00:56:26.690Z,16.14
2018-11-21T00:57:26.656Z,16.20
2018-11-21T00:58:26.648Z,16.16
2018-11-21T00:59:26.629Z,16.18
2018-11-21T01:00:26.605Z,16.18
2018-11-21T01:01:26.586Z,16.18
2018-11-21T01:02:26.556Z,16.16
2018-11-21T01:03:26.528Z,16.16
2018-11-21T01:04:26.511Z,16.23
2018-11-21T01:05:26.473Z,16.22
2018-11-21T01:06:26.464Z,16.20
2018-11-21T01:07:26.438Z,16.18
2018-11-21T01:08:26.420Z,16.20
2018-11-21T01:09:26.393Z,16.14
2018-11-21T01:10:26.371Z,16.20
2018-11-21T01:11:26.350Z,16.22
2018-11-21T01:12:26.328Z,16.15
2018-11-21T01:13:26.309Z,16.22
2018-11-21T01:14:26.279Z,16.16
2018-11-21T01:15:26.256Z,16.18
2018-11-21T01:16:26.240Z,16.23
2018-11-21T01:17:26.211Z,16.16
2018-11-21T01:18:26.187Z,16.26
2018-11-21T01:19:26.162Z,16.23
2018-11-21T01:20:26.144Z,16.18
2018-11-21T01:21:26.108Z,16.22
2018-11-21T01:22:26.100Z,16.23
2018-11-21T01:23:26.059Z,16.22
2018-11-21T01:24:26.030Z,16.20
2018-11-21T01:25:26.023Z,16.30
2018-11-21T01:26:25.985Z,16.18
2018-11-21T01:27:25.984Z,16.27
2018-11-21T01:28:25.952Z,16.34
2018-11-21T01:29:25.933Z,16.33
2018-11-21T01:30:25.915Z,16.27
2018-11-21T01:31:25.886Z,16.30
2018-11-21T01:32:25.849Z,16.37
2018-11-21T01:33:25.844Z,16.33
2018-11-21T01:34:25.817Z,16.38
2018-11-21T01:35:25.801Z,16.30
2018-11-21T01:36:25.775Z,16.26
2018-11-21T01:37:25.752Z,16.30
2018-11-21T01:38:25.730Z,16.30
2018-11-21T01:39:25.708Z,16.33
2018-11-21T01:40:25.680Z,16.25
2018-11-21T01:41:25.667Z,16.34
2018-11-21T01:42:25.632Z,16.33
2018-11-21T01:43:25.606Z,16.27
2018-11-21T01:44:25.579Z,16.34
2018-11-21T01:45:25.568Z,16.35
2018-11-21T01:46:25.536Z,16.38
2018-11-21T01:47:25.529Z,16.34
2018-11-21T01:48:25.492Z,16.31
2018-11-21T01:49:25.478Z,16.37
2018-11-21T01:50:25.437Z,16.23
2018-11-21T01:51:25.414Z,16.26
2018-11-21T01:52:25.403Z,16.31
2018-11-21T01:53:25.382Z,16.34
2018-11-21T01:54:25.365Z,16.40
2018-11-21T01:55:25.335Z,16.38
2018-11-21T01:56:25.312Z,16.30
2018-11-21T01:57:25.287Z,16.33
2018-11-21T01:58:25.266Z,16.25
2018-11-21T01:59:25.241Z,16.26
2018-11-21T02:00:25.218Z,16.30
2018-11-21T02:01:25.194Z,16.35
2018-11-21T02:02:25.160Z,16.31
2018-11-21T02:03:25.146Z,16.31
2018-11-21T02:04:25.159Z,16.30
2018-11-21T02:05:25.101Z,16.38
2018-11-21T02:06:25.065Z,16.34
2018-11-21T02:07:25.057Z,16.31
2018-11-21T02:08:25.040Z,16.27
2018-11-21T02:09:25.018Z,16.37
2018-11-21T02:10:24.972Z,16.38
2018-11-21T02:11:24.968Z,16.30
2018-11-21T02:12:24.940Z,16.26
2018-11-21T02:13:24.917Z,16.26
2018-11-21T02:14:24.904Z,16.30
2018-11-21T02:15:24.875Z,16.40
2018-11-21T02:16:24.856Z,16.33
2018-11-21T02:17:24.831Z,16.35
2018-11-21T02:18:24.807Z,16.35
2018-11-21T02:19:24.785Z,16.30
2018-11-21T02:20:24.759Z,16.34
2018-11-21T02:21:24.745Z,16.40
2018-11-21T02:22:24.718Z,16.34
2018-11-21T02:23:24.696Z,16.37
2018-11-21T02:24:24.670Z,16.38
2018-11-21T02:25:24.632Z,16.38
2018-11-21T02:26:24.626Z,16.34
2018-11-21T02:27:24.603Z,16.37
2018-11-21T02:28:24.560Z,16.35
2018-11-21T02:29:24.553Z,16.31
2018-11-21T02:30:24.522Z,16.34
2018-11-21T02:31:24.518Z,16.34
2018-11-21T02:32:24.488Z,16.33
2018-11-21T02:33:24.462Z,16.35
2018-11-21T02:34:24.441Z,16.31
2018-11-21T02:35:24.418Z,16.34
2018-11-21T02:36:24.384Z,16.37
2018-11-21T02:37:24.374Z,16.30
2018-11-21T02:38:24.353Z,16.27
2018-11-21T02:39:24.329Z,16.31
2018-11-21T02:40:24.303Z,16.40
2018-11-21T02:41:24.286Z,16.30
2018-11-21T02:42:24.258Z,16.34
2018-11-21T02:43:24.233Z,16.35
2018-11-21T02:44:24.210Z,16.27
2018-11-21T02:45:24.184Z,16.18
2018-11-21T02:46:24.168Z,16.31
2018-11-21T02:47:24.138Z,16.37
2018-11-21T02:48:24.123Z,16.27
2018-11-21T02:49:24.095Z,16.31
2018-11-21T02:50:24.069Z,16.27
2018-11-21T02:51:24.052Z,16.34
2018-11-21T02:52:24.021Z,16.26
2018-11-21T02:53:23.999Z,16.26
2018-11-21T02:54:23.975Z,16.27
2018-11-21T02:55:23.960Z,16.30
2018-11-21T02:56:23.928Z,16.35
2018-11-21T02:57:23.909Z,16.31
2018-11-21T02:58:23.884Z,16.31
2018-11-21T02:59:23.865Z,16.40
2018-11-21T03:00:23.837Z,16.30
2018-11-21T03:01:23.818Z,16.34
2018-11-21T03:02:23.790Z,16.31
2018-11-21T03:03:23.769Z,16.31
2018-11-21T03:04:23.747Z,16.37
2018-11-21T03:05:23.706Z,16.30
2018-11-21T03:06:23.699Z,16.34
2018-11-21T03:07:23.682Z,16.34
2018-11-21T03:08:23.649Z,16.30
2018-11-21T03:09:23.621Z,16.26
2018-11-21T03:10:23.614Z,16.26
2018-11-21T03:11:23.582Z,16.34
2018-11-21T03:12:23.544Z,16.30
2018-11-21T03:13:28.390Z,16.34
2018-11-21T03:14:23.504Z,16.41
2018-11-21T03:15:23.498Z,16.34
2018-11-21T03:16:23.521Z,16.31
2018-11-21T03:17:23.451Z,16.37
2018-11-21T03:18:23.425Z,16.34
2018-11-21T03:19:23.402Z,16.31
2018-11-21T03:20:23.378Z,16.34
2018-11-21T03:21:23.349Z,16.34
2018-11-21T03:22:23.328Z,16.42
2018-11-21T03:23:23.304Z,16.35
2018-11-21T03:24:23.283Z,16.35
2018-11-21T03:25:23.261Z,16.34
2018-11-21T03:26:23.236Z,16.40
2018-11-21T03:27:23.214Z,16.34
2018-11-21T03:28:23.197Z,16.44
2018-11-21T03:29:23.161Z,16.40
2018-11-21T03:30:23.134Z,16.35
2018-11-21T03:31:23.119Z,16.40
2018-11-21T03:32:23.098Z,16.35
2018-11-21T03:33:23.074Z,16.37
2018-11-21T03:34:23.041Z,16.25
2018-11-21T03:35:23.031Z,16.25
2018-11-21T03:36:23.010Z,16.35
2018-11-21T03:37:22.979Z,16.26
2018-11-21T03:38:22.958Z,16.31
2018-11-21T03:39:22.926Z,16.34
2018-11-21T03:40:22.912Z,16.34
2018-11-21T03:41:22.886Z,16.30
2018-11-21T03:42:22.869Z,16.27
2018-11-21T03:43:22.842Z,16.26
2018-11-21T03:44:22.816Z,16.31
2018-11-21T03:45:22.801Z,16.25
2018-11-21T03:46:22.777Z,16.30
2018-11-21T03:47:22.763Z,16.34
2018-11-21T03:48:22.730Z,16.27
2018-11-21T03:49:22.711Z,16.31
2018-11-21T03:50:22.670Z,16.27
2018-11-21T03:51:22.644Z,16.26
2018-11-21T03:52:22.633Z,16.30
2018-11-21T03:53:22.615Z,16.26
2018-11-21T03:54:22.585Z,16.22
2018-11-21T03:55:22.571Z,16.26
2018-11-21T03:56:22.530Z,16.30
2018-11-21T03:57:22.505Z,16.31
2018-11-21T03:58:22.500Z,16.25
2018-11-21T03:59:22.475Z,16.30
2018-11-21T04:00:22.438Z,16.27
2018-11-21T04:01:22.429Z,16.27
2018-11-21T04:02:22.406Z,16.31
2018-11-21T04:03:22.382Z,16.22
2018-11-21T04:04:22.358Z,16.31
2018-11-21T04:05:22.344Z,16.26
2018-11-21T04:06:23.423Z,16.30
2018-11-21T04:07:22.277Z,16.31
2018-11-21T04:08:22.264Z,16.30
2018-11-21T04:09:22.243Z,16.30
2018-11-21T04:10:22.202Z,16.38
2018-11-21T04:11:22.192Z,16.33
2018-11-21T04:12:22.167Z,16.25
2018-11-21T04:13:22.148Z,16.23
2018-11-21T04:14:22.127Z,16.25
2018-11-21T04:15:55.293Z,16.18
2018-11-21T04:16:22.060Z,16.34
2018-11-21T04:17:22.062Z,16.27
2018-11-21T04:18:22.040Z,16.22
2018-11-21T04:19:21.998Z,16.20
2018-11-21T04:20:21.988Z,16.23
2018-11-21T04:21:21.963Z,16.23
2018-11-21T04:22:21.941Z,16.33
2018-11-21T04:23:21.923Z,16.18
2018-11-21T04:24:21.892Z,16.23
2018-11-21T04:25:21.874Z,16.25
2018-11-21T04:26:21.851Z,16.26
2018-11-21T04:27:21.828Z,16.27
2018-11-21T04:28:21.801Z,16.20
2018-11-21T04:29:21.783Z,16.27
2018-11-21T04:30:21.751Z,16.16
2018-11-21T04:31:21.732Z,16.20
2018-11-21T04:32:21.719Z,16.22
2018-11-21T04:33:21.692Z,16.20
2018-11-21T04:34:21.659Z,16.15
2018-11-21T04:35:21.627Z,16.20
2018-11-21T04:36:21.622Z,16.16
2018-11-21T04:37:21.592Z,16.26
2018-11-21T04:38:21.570Z,16.20
2018-11-21T04:39:21.553Z,16.25
2018-11-21T04:40:21.523Z,16.04
2018-11-21T04:41:21.506Z,16.06
2018-11-21T04:42:21.480Z,16.11
2018-11-21T04:43:21.458Z,16.09
2018-11-21T04:44:21.432Z,16.18
2018-11-21T04:45:21.406Z,16.09
2018-11-21T04:46:21.385Z,16.16
2018-11-21T04:47:21.360Z,16.16
2018-11-21T04:48:21.343Z,16.11
2018-11-21T04:49:21.317Z,16.14
2018-11-21T04:50:21.288Z,16.07
2018-11-21T04:51:21.269Z,16.12
2018-11-21T04:52:21.246Z,16.04
2018-11-21T04:53:21.229Z,16.12
2018-11-21T04:54:21.198Z,16.07
2018-11-21T04:55:21.181Z,16.18
2018-11-21T04:56:21.156Z,16.18
2018-11-21T04:57:21.124Z,16.11
2018-11-21T04:58:21.097Z,16.11
2018-11-21T04:59:21.082Z,16.09
2018-11-21T05:00:21.058Z,16.06
2018-11-21T05:01:21.039Z,16.20
2018-11-21T05:02:21.018Z,16.18
2018-11-21T05:03:20.997Z,16.15
2018-11-21T05:04:20.967Z,16.18
2018-11-21T05:05:20.939Z,16.16
2018-11-21T05:06:20.919Z,16.06
2018-11-21T05:07:20.880Z,16.16
2018-11-21T05:08:20.864Z,16.22
2018-11-21T05:09:20.853Z,16.16
2018-11-21T05:10:20.827Z,16.11
2018-11-21T05:11:20.804Z,16.04
2018-11-21T05:12:20.784Z,16.11
2018-11-21T05:13:20.761Z,16.22
2018-11-21T05:14:20.740Z,16.15
2018-11-21T05:15:20.703Z,16.25
2018-11-21T05:16:20.689Z,16.16
2018-11-21T05:17:20.671Z,16.22
2018-11-21T05:18:20.646Z,16.23
2018-11-21T05:19:20.625Z,16.11
2018-11-21T05:20:20.600Z,16.14
2018-11-21T05:21:20.573Z,16.22
2018-11-21T05:22:20.551Z,16.18
2018-11-21T05:23:20.528Z,16.16
2018-11-21T05:24:20.502Z,16.18
2018-11-21T05:25:20.485Z,16.18
2018-11-21T05:26:20.460Z,16.23
2018-11-21T05:27:20.440Z,16.14
2018-11-21T05:28:20.419Z,16.15
2018-11-21T05:29:20.397Z,16.20
2018-11-21T05:30:20.367Z,16.16
2018-11-21T05:31:20.324Z,16.11
2018-11-21T05:32:20.305Z,16.20
2018-11-21T05:33:20.301Z,16.14
2018-11-21T05:34:20.270Z,16.15
2018-11-21T05:35:20.253Z,16.12
2018-11-21T05:36:20.231Z,16.11
2018-11-21T05:37:20.200Z,16.09
2018-11-21T05:38:20.184Z,16.18
2018-11-21T05:39:20.162Z,16.06
2018-11-21T05:40:20.291Z,16.06
2018-11-21T05:41:20.108Z,16.04
2018-11-21T05:42:20.083Z,16.07
2018-11-21T05:43:20.066Z,16.16
2018-11-21T05:44:20.043Z,16.09
2018-11-21T05:45:20.003Z,16.09
2018-11-21T05:46:20.000Z,16.03
2018-11-21T05:47:19.970Z,15.99
2018-11-21T05:48:19.948Z,16.01
2018-11-21T05:49:19.908Z,16.00
2018-11-21T05:50:19.892Z,16.03
2018-11-21T05:51:19.865Z,16.07
2018-11-21T05:52:19.845Z,16.03
2018-11-21T05:53:19.829Z,16.09
2018-11-21T05:54:53.011Z,16.12
2018-11-21T05:55:19.796Z,16.09
2018-11-21T05:56:19.757Z,16.06
2018-11-21T05:57:19.737Z,16.06
2018-11-21T05:58:19.724Z,16.06
2018-11-21T05:59:19.692Z,16.04
2018-11-21T06:00:19.671Z,16.07
2018-11-21T06:01:19.650Z,16.01
2018-11-21T06:02:19.628Z,16.15
2018-11-21T06:03:19.598Z,16.04
2018-11-21T06:04:19.576Z,16.09
2018-11-21T06:05:19.557Z,16.06
2018-11-21T06:06:19.528Z,16.00
2018-11-21T06:07:19.505Z,16.07
2018-11-21T06:08:19.483Z,16.07
2018-11-21T06:09:19.450Z,16.09
2018-11-21T06:10:19.422Z,16.12
2018-11-21T06:11:19.396Z,16.14
2018-11-21T06:12:19.387Z,16.09
2018-11-21T06:13:19.370Z,16.06
2018-11-21T06:14:19.346Z,16.15
2018-11-21T06:15:19.319Z,16.14
2018-11-21T06:16:19.298Z,16.06
2018-11-21T06:17:19.278Z,16.12
2018-11-21T06:18:19.250Z,16.14
2018-11-21T06:19:19.227Z,16.09
2018-11-21T06:20:19.206Z,16.03
2018-11-21T06:21:19.181Z,16.00
2018-11-21T06:22:19.157Z,15.99
2018-11-21T06:23:19.135Z,16.01
2018-11-21T06:24:19.113Z,16.01
2018-11-21T06:25:19.098Z,16.00
2018-11-21T06:26:19.065Z,16.03
2018-11-21T06:27:19.042Z,16.06
2018-11-21T06:28:19.026Z,16.03
2018-11-21T06:29:18.989Z,16.04
2018-11-21T06:30:18.956Z,16.01
2018-11-21T06:31:18.944Z,15.94
2018-11-21T06:32:18.927Z,16.01
2018-11-21T06:33:18.887Z,15.97
2018-11-21T06:34:18.881Z,16.03
2018-11-21T06:35:18.837Z,16.04
2018-11-21T06:36:18.837Z,16.09
2018-11-21T06:37:18.808Z,16.07
2018-11-21T06:38:18.787Z,16.03
2018-11-21T06:39:18.762Z,16.03
2018-11-21T06:40:18.739Z,16.04
2018-11-21T06:41:18.721Z,16.03
2018-11-21T06:42:18.692Z,16.03
2018-11-21T06:43:18.670Z,16.03
2018-11-21T06:44:18.651Z,16.06
2018-11-21T06:45:18.624Z,16.04
2018-11-21T06:46:18.591Z,16.09
2018-11-21T06:47:18.563Z,16.03
2018-11-21T06:48:18.546Z,16.07
2018-11-21T06:49:18.524Z,16.04
2018-11-21T06:50:18.504Z,16.04
2018-11-21T06:51:18.479Z,15.99
2018-11-21T06:52:22.284Z,16.03
2018-11-21T06:53:18.436Z,16.01
2018-11-21T06:54:18.410Z,16.07
2018-11-21T06:55:18.381Z,16.09
2018-11-21T06:56:18.352Z,16.09
2018-11-21T06:57:18.328Z,16.09
2018-11-21T06:58:18.323Z,16.07
2018-11-21T06:59:18.292Z,16.06
2018-11-21T07:00:18.279Z,16.04
2018-11-21T07:01:18.250Z,16.04
2018-11-21T07:02:18.227Z,16.06
2018-11-21T07:03:18.207Z,15.99
2018-11-21T07:04:18.172Z,16.00
2018-11-21T07:05:18.163Z,16.01
2018-11-21T07:06:18.136Z,16.07
2018-11-21T07:07:18.111Z,16.04
2018-11-21T07:08:18.096Z,16.09
2018-11-21T07:09:18.070Z,16.12
2018-11-21T07:10:18.046Z,16.11
2018-11-21T07:11:18.028Z,16.06
2018-11-21T07:12:17.996Z,16.09
2018-11-21T07:13:17.997Z,16.04
2018-11-21T07:14:17.947Z,16.07
2018-11-21T07:15:17.912Z,16.06
2018-11-21T07:16:17.905Z,16.06
2018-11-21T07:17:17.880Z,16.09
2018-11-21T07:18:17.860Z,16.09
2018-11-21T07:19:17.834Z,16.07
2018-11-21T07:20:17.818Z,16.15
2018-11-21T07:21:17.784Z,16.11
2018-11-21T07:22:17.766Z,16.12
2018-11-21T07:23:17.745Z,16.20
2018-11-21T07:24:17.721Z,16.11
2018-11-21T07:25:17.703Z,16.15
2018-11-21T07:26:17.672Z,16.07
2018-11-21T07:27:17.649Z,16.15
2018-11-21T07:28:17.625Z,16.07
2018-11-21T07:29:17.605Z,16.04
2018-11-21T07:30:17.581Z,16.09
2018-11-21T07:31:17.557Z,16.12
2018-11-21T07:32:17.522Z,16.15
2018-11-21T07:33:17.514Z,16.15
2018-11-21T07:34:17.481Z,16.04
2018-11-21T07:35:18.064Z,16.09
2018-11-21T07:36:17.443Z,16.14
2018-11-21T07:37:17.417Z,16.07
2018-11-21T07:38:17.377Z,16.11
2018-11-21T07:39:17.365Z,16.11
2018-11-21T07:40:17.334Z,16.18
2018-11-21T07:41:17.322Z,16.06
2018-11-21T07:42:17.295Z,16.12
2018-11-21T07:43:17.279Z,16.09
2018-11-21T07:44:17.251Z,16.07
2018-11-21T07:45:17.229Z,16.18
2018-11-21T07:46:17.211Z,16.22
2018-11-21T07:47:17.183Z,16.22
2018-11-21T07:48:20.559Z,16.27
2018-11-21T07:49:17.135Z,16.25
2018-11-21T07:50:17.101Z,16.23
2018-11-21T07:51:17.077Z,16.25
2018-11-21T07:52:17.054Z,16.22
2018-11-21T07:53:17.050Z,16.25
2018-11-21T07:54:17.024Z,16.20
2018-11-21T07:55:16.989Z,16.26
2018-11-21T07:56:16.979Z,16.18
2018-11-21T07:57:16.950Z,16.23
2018-11-21T07:58:16.911Z,16.22
2018-11-21T07:59:16.908Z,16.33
2018-11-21T08:00:16.882Z,16.23
2018-11-21T08:01:16.857Z,16.22
2018-11-21T08:02:16.822Z,16.22
2018-11-21T08:03:16.816Z,16.20
2018-11-21T08:04:16.798Z,16.16
2018-11-21T08:05:16.766Z,16.18
2018-11-21T08:06:16.745Z,16.23
2018-11-21T08:07:16.717Z,16.20
2018-11-21T08:08:16.697Z,16.25
2018-11-21T08:09:16.674Z,16.31
2018-11-21T08:10:16.652Z,16.30
2018-11-21T08:11:16.628Z,16.27
2018-11-21T08:12:16.604Z,16.33
2018-11-21T08:13:16.582Z,16.26
2018-11-21T08:14:16.556Z,16.25
2018-11-21T08:15:19.378Z,16.30
2018-11-21T08:16:16.515Z,16.30
2018-11-21T08:17:16.474Z,16.31
2018-11-21T08:18:16.456Z,16.26
2018-11-21T08:19:16.431Z,16.31
2018-11-21T08:20:16.420Z,16.33
2018-11-21T08:21:16.393Z,16.38
2018-11-21T08:22:16.373Z,16.44
2018-11-21T08:23:16.348Z,16.40
2018-11-21T08:24:16.330Z,16.33
2018-11-21T08:25:16.305Z,16.34
2018-11-21T08:26:16.285Z,16.35
2018-11-21T08:27:16.258Z,16.38
2018-11-21T08:28:16.236Z,16.48
2018-11-21T08:29:16.211Z,16.42
2018-11-21T08:30:16.189Z,16.49
2018-11-21T08:31:16.175Z,16.48
2018-11-21T08:32:16.140Z,16.44
2018-11-21T08:33:16.125Z,16.41
2018-11-21T08:34:16.100Z,16.45
2018-11-21T08:35:16.071Z,16.44
2018-11-21T08:36:16.040Z,16.48
2018-11-21T08:37:16.018Z,16.52
2018-11-21T08:38:16.002Z,16.49
2018-11-21T08:39:15.975Z,16.48
2018-11-21T08:40:15.955Z,16.55
2018-11-21T08:41:15.922Z,16.52
2018-11-21T08:42:15.907Z,16.52
2018-11-21T08:43:15.889Z,16.58
2018-11-21T08:44:15.867Z,16.52
2018-11-21T08:45:15.841Z,16.55
2018-11-21T08:46:15.809Z,16.59
2018-11-21T08:47:15.796Z,16.52
2018-11-21T08:48:15.775Z,16.65
2018-11-21T08:49:15.755Z,16.59
2018-11-21T08:50:15.725Z,16.70
2018-11-21T08:51:15.707Z,16.59
2018-11-21T08:52:15.685Z,16.68
2018-11-21T08:53:15.644Z,16.68
2018-11-21T08:54:15.634Z,16.70
2018-11-21T08:55:15.612Z,16.75
2018-11-21T08:56:15.593Z,16.78
2018-11-21T08:57:15.567Z,16.86
2018-11-21T08:58:15.539Z,16.90
2018-11-21T08:59:15.507Z,16.78
2018-11-21T09:00:15.502Z,16.86
2018-11-21T09:01:15.467Z,16.80
2018-11-21T09:02:15.451Z,16.81
2018-11-21T09:03:15.414Z,16.80
2018-11-21T09:04:15.395Z,16.88
2018-11-21T09:05:15.392Z,16.80
2018-11-21T09:06:15.346Z,16.80
2018-11-21T09:07:15.337Z,16.80
2018-11-21T09:08:15.315Z,16.86
2018-11-21T09:09:15.296Z,16.92
2018-11-21T09:10:15.270Z,16.81
2018-11-21T09:11:15.235Z,16.90
2018-11-21T09:12:15.424Z,16.92
2018-11-21T09:13:15.207Z,16.89
2018-11-21T09:14:15.179Z,17.04
2018-11-21T09:15:15.157Z,17.00
2018-11-21T09:16:15.139Z,16.99
2018-11-21T09:17:15.098Z,17.06
2018-11-21T09:18:15.094Z,17.03
2018-11-21T09:19:15.067Z,17.04
2018-11-21T09:20:15.049Z,17.07
2018-11-21T09:21:15.024Z,17.13
2018-11-21T09:22:15.005Z,17.14
2018-11-21T09:23:14.984Z,17.11
2018-11-21T09:24:14.960Z,17.04
2018-11-21T09:25:14.935Z,17.04
2018-11-21T09:26:14.904Z,17.18
2018-11-21T09:27:14.888Z,17.18
2018-11-21T09:28:14.865Z,17.17
2018-11-21T09:29:14.846Z,17.20
2018-11-21T09:30:14.820Z,17.22
2018-11-21T09:31:14.809Z,17.08
2018-11-21T09:32:14.762Z,17.11
2018-11-21T09:33:14.755Z,17.14
2018-11-21T09:34:14.715Z,17.18
2018-11-21T09:35:14.699Z,17.17
2018-11-21T09:36:14.687Z,17.23
2018-11-21T09:37:14.656Z,17.26
2018-11-21T09:38:14.639Z,17.26
2018-11-21T09:39:14.615Z,17.18
2018-11-21T09:40:14.592Z,17.25
2018-11-21T09:41:14.578Z,17.40
2018-11-21T09:42:14.557Z,17.33
2018-11-21T09:43:14.529Z,17.46
2018-11-21T09:44:14.514Z,17.38
2018-11-21T09:45:14.485Z,17.48
2018-11-21T09:46:17.272Z,17.62
2018-11-21T09:47:14.451Z,17.51
2018-11-21T09:48:14.420Z,17.51
2018-11-21T09:49:14.397Z,17.47
2018-11-21T09:50:14.377Z,17.44
2018-11-21T09:51:14.346Z,17.47
2018-11-21T09:52:14.338Z,17.66
2018-11-21T09:53:14.300Z,17.79
2018-11-21T09:54:14.276Z,17.87
2018-11-21T09:55:14.266Z,18.18
2018-11-21T09:56:14.245Z,18.27
2018-11-21T09:57:14.228Z,18.22
2018-11-21T09:58:14.209Z,18.03
2018-11-21T09:59:14.181Z,17.89
2018-11-21T10:00:14.159Z,17.92
2018-11-21T10:01:14.142Z,17.94
2018-11-21T10:02:14.118Z,17.78
2018-11-21T10:03:14.093Z,17.85
2018-11-21T10:04:14.076Z,17.81
2018-11-21T10:05:14.059Z,17.73
2018-11-21T10:06:14.037Z,17.78
2018-11-21T10:07:14.009Z,17.88
2018-11-21T10:08:13.993Z,18.02
2018-11-21T10:09:14.013Z,18.10
2018-11-21T10:10:13.951Z,17.97
2018-11-21T10:11:13.923Z,18.04
2018-11-21T10:12:13.910Z,17.94
2018-11-21T10:13:13.884Z,17.92
2018-11-21T10:14:13.878Z,17.89
2018-11-21T10:15:13.836Z,18.04
2018-11-21T10:16:13.824Z,18.10
2018-11-21T10:17:13.784Z,18.07
2018-11-21T10:18:13.780Z,18.06
2018-11-21T10:19:13.740Z,18.09
2018-11-21T10:20:13.723Z,18.07
2018-11-21T10:21:13.714Z,18.09
2018-11-21T10:22:13.692Z,18.28
2018-11-21T10:23:13.674Z,18.28
2018-11-21T10:24:13.656Z,18.12
2018-11-21T10:25:13.633Z,18.24
2018-11-21T10:26:13.617Z,18.27
2018-11-21T10:27:13.594Z,18.17
2018-11-21T10:28:13.606Z,18.07
2018-11-21T10:29:13.626Z,18.21
2018-11-21T10:30:13.586Z,18.25
2018-11-21T10:31:13.491Z,18.33
2018-11-21T10:32:13.471Z,18.55
2018-11-21T10:33:13.466Z,18.47
2018-11-21T10:34:13.442Z,18.54
2018-11-21T10:35:13.422Z,18.65
2018-11-21T10:36:13.403Z,18.83
2018-11-21T10:37:13.370Z,18.97
2018-11-21T10:38:13.348Z,19.01
2018-11-21T10:39:13.336Z,18.92
2018-11-21T10:40:13.300Z,18.79
2018-11-21T10:41:13.281Z,18.82
2018-11-21T10:42:13.277Z,18.77
2018-11-21T10:43:13.257Z,18.87
2018-11-21T10:44:13.240Z,18.87
2018-11-21T10:45:13.221Z,18.76
2018-11-21T10:46:13.199Z,18.68
2018-11-21T10:47:13.203Z,18.73
2018-11-21T10:48:13.160Z,18.97
2018-11-21T10:49:13.146Z,19.28
2018-11-21T10:50:13.113Z,19.42
2018-11-21T10:51:13.917Z,19.43
2018-11-21T10:52:13.075Z,19.50
2018-11-21T10:53:13.051Z,19.65
2018-11-21T10:54:13.035Z,19.43
2018-11-21T10:55:13.019Z,19.43
2018-11-21T10:56:12.993Z,19.50
2018-11-21T10:57:12.967Z,19.43
2018-11-21T10:58:12.939Z,19.39
2018-11-21T10:59:12.927Z,19.36
2018-11-21T11:00:12.922Z,19.14
2018-11-21T11:01:12.900Z,19.20
2018-11-21T11:02:12.881Z,19.24
2018-11-21T11:03:12.856Z,19.15
2018-11-21T11:04:12.845Z,19.06
2018-11-21T11:05:12.825Z,19.14
2018-11-21T11:06:12.800Z,19.01
2018-11-21T11:07:12.781Z,19.40
2018-11-21T11:08:12.766Z,19.47
2018-11-21T11:09:12.741Z,19.50
2018-11-21T11:10:12.726Z,19.31
2018-11-21T11:11:12.707Z,19.21
2018-11-21T11:12:12.685Z,19.17
2018-11-21T11:13:12.760Z,19.14
2018-11-21T11:14:12.649Z,19.17
2018-11-21T11:15:12.611Z,19.28
2018-11-21T11:16:12.662Z,19.08
2018-11-21T11:17:12.594Z,18.98
2018-11-21T11:18:12.565Z,18.92
2018-11-21T11:19:12.544Z,18.99
2018-11-21T11:20:12.532Z,18.99
2018-11-21T11:21:12.496Z,18.84
2018-11-21T11:22:12.483Z,18.92
2018-11-21T11:23:12.448Z,18.95
2018-11-21T11:24:12.438Z,19.05
2018-11-21T11:25:12.430Z,19.20
2018-11-21T11:26:12.395Z,19.33
2018-11-21T11:27:12.388Z,19.38
2018-11-21T11:28:14.646Z,19.15
2018-11-21T11:29:12.351Z,19.18
2018-11-21T11:30:12.333Z,19.13
2018-11-21T11:31:12.308Z,19.13
2018-11-21T11:32:12.286Z,18.90
2018-11-21T11:33:12.254Z,18.82
2018-11-21T11:34:12.239Z,18.91
2018-11-21T11:35:12.228Z,19.01
2018-11-21T11:36:12.208Z,19.05
2018-11-21T11:37:12.188Z,19.05
2018-11-21T11:38:12.168Z,19.18
2018-11-21T11:39:12.129Z,19.02
2018-11-21T11:40:12.126Z,19.17
2018-11-21T11:41:12.104Z,19.38
2018-11-21T11:42:12.070Z,19.35
2018-11-21T11:43:12.051Z,19.53
2018-11-21T11:44:12.035Z,19.35
2018-11-21T11:45:14.408Z,19.47
2018-11-21T11:46:11.990Z,19.35
2018-11-21T11:47:11.987Z,19.24
2018-11-21T11:48:11.964Z,19.32
2018-11-21T11:49:11.946Z,19.24
2018-11-21T11:50:11.927Z,19.42
2018-11-21T11:51:11.908Z,19.40
2018-11-21T11:52:11.889Z,19.40
2018-11-21T11:53:11.874Z,19.38
2018-11-21T11:54:11.850Z,19.63
2018-11-21T11:55:11.829Z,19.65
2018-11-21T11:56:11.814Z,19.69
2018-11-21T11:57:11.796Z,19.69
2018-11-21T11:58:11.771Z,19.61
2018-11-21T11:59:11.755Z,19.70
2018-11-21T12:00:11.723Z,19.93
2018-11-21T12:01:11.714Z,19.83
2018-11-21T12:02:13.434Z,19.93
2018-11-21T12:03:11.659Z,19.91
2018-11-21T12:04:11.638Z,19.78
2018-11-21T12:05:11.637Z,19.69
2018-11-21T12:06:11.620Z,19.58
2018-11-21T12:07:11.599Z,19.47
2018-11-21T12:08:11.599Z,19.51
2018-11-21T12:09:11.545Z,19.61
2018-11-21T12:10:11.543Z,19.72
2018-11-21T12:11:11.518Z,19.97
2018-11-21T12:12:11.517Z,20.13
2018-11-21T12:13:11.482Z,19.91
2018-11-21T12:14:11.465Z,19.75
2018-11-21T12:15:11.448Z,19.83
2018-11-21T12:16:11.424Z,19.97
2018-11-21T12:17:11.408Z,20.23
2018-11-21T12:18:11.381Z,20.06
2018-11-21T12:19:11.367Z,19.75
2018-11-21T12:20:11.343Z,19.72
2018-11-21T12:21:11.326Z,19.73
2018-11-21T12:22:11.306Z,19.72
2018-11-21T12:23:11.288Z,19.72
2018-11-21T12:24:11.271Z,19.78
2018-11-21T12:25:11.247Z,19.69
2018-11-21T12:26:11.216Z,19.65
2018-11-21T12:27:11.195Z,19.60
2018-11-21T12:28:11.189Z,19.46
2018-11-21T12:29:11.167Z,19.65
2018-11-21T12:30:11.157Z,19.61
2018-11-21T12:31:11.128Z,19.58
2018-11-21T12:32:11.115Z,19.69
2018-11-21T12:33:11.095Z,19.86
2018-11-21T12:34:11.078Z,19.75
2018-11-21T12:35:11.057Z,19.63
2018-11-21T12:36:11.031Z,19.68
2018-11-21T12:37:11.015Z,19.78
2018-11-21T12:38:10.976Z,19.69
2018-11-21T12:39:10.969Z,19.66
2018-11-21T12:40:10.954Z,19.58
2018-11-21T12:41:10.933Z,19.66
2018-11-21T12:42:10.909Z,19.68
2018-11-21T12:43:13.436Z,19.75
2018-11-21T12:44:10.874Z,19.90
2018-11-21T12:45:10.840Z,19.83
2018-11-21T12:46:10.827Z,19.83
2018-11-21T12:47:10.800Z,19.90
2018-11-21T12:48:10.783Z,20.05
2018-11-21T12:49:10.777Z,20.12
2018-11-21T12:50:10.737Z,20.20
2018-11-21T12:51:10.730Z,20.27
2018-11-21T12:52:10.712Z,20.64